Skip Navigation LinksHome page > Weather > Current weather Skip Navigation Links

Current Weather

Heathrow, London

For information only: do not use for flight planning or navigation.
Latest weather
Observation time Sunday, September 20, 2020 7:50 AM BST
Local time Sunday, September 20, 2020 8:07 AM BST
Flight conditions Visual Meteorological Conditions
Winds
Wind direction North-Northeast (30°)
Winds variable from 360° to 80°
Wind speed 7 mph
Visibility 6.2 mi.
Sky condition
Ceiling unlimited
Cloud layer few clouds 1,000 ft.
Temperature 59°F
Dewpoint 55°F
Altimeter 30.09 in.Hg
Derived measurements
Relative humidity 88%
Density altitude 14 ft.
Remarks
Corrected report.
Fully automated report.
No significant changes expected in the next two hours.
METAR COR EGLL 200650Z AUTO 03006KT 360V080 9999 FEW010 15/13 Q1019 NOSIG

Settings

Location code

InnerDrive.Weather 4.0.6770.0 Release CLR 4.0.30319.42000
Copyright ©2018 Inner Drive Technology. All rights reserved. Portions Copyright ©1986-2018 David Braverman.

Find weather

Site navigation


Skip Navigation Links

Place info

Page info

PayPal - The safer, easier way to pay online!

Return home.

Copyright ©2020 Inner Drive Technology. Purveyors of fine, hand-crafted computer software. Page printed 2020-09-20T07:07:30 UTC.